Time;durP1;ratioP1;P1;durP2;ratioP2;P2;SDS_P1;SDS_P2;PMS_P1;PMS_P2;Temp;Humidity;BMP_temperature;BMP_pressure;BME280_temperature;BME280_humidity;BME280_pressure;Samples;Min_cycle;Max_cycle;Signal;HPM_P1;HPM_P2
2023/06/26 06:44:03;;;;;;;3.37;1.00;;;16.80;37.40;;;;;;4552716;28;20283;-68
2023/06/26 06:46:30;;;;;;;3.83;1.00;;;16.70;37.70;;;;;;4993410;28;20236;-66
2023/06/26 06:48:58;;;;;;;3.53;0.90;;;16.60;37.70;;;;;;4992899;28;20189;-68
2023/06/26 06:51:25;;;;;;;1.90;1.00;;;16.60;37.90;;;;;;4993737;28;20186;-68
2023/06/26 06:53:52;;;;;;;2.50;1.13;;;16.60;37.80;;;;;;4993987;28;20677;-67
2023/06/26 06:56:20;;;;;;;4.13;1.27;;;16.60;38.10;;;;;;4992784;28;20192;-68
2023/06/26 06:58:47;;;;;;;6.47;1.13;;;16.50;38.30;;;;;;4993644;28;20187;-67
2023/06/26 07:01:14;;;;;;;5.13;1.17;;;16.30;38.60;;;;;;4992744;28;20237;-66
2023/06/26 07:03:42;;;;;;;3.50;1.10;;;16.30;38.80;;;;;;4994479;28;20213;-67
2023/06/26 07:06:09;;;;;;;3.43;1.00;;;16.40;38.70;;;;;;4990753;28;20197;-68
2023/06/26 07:08:36;;;;;;;1.90;1.10;;;16.30;38.80;;;;;;4994166;28;20193;-68
2023/06/26 07:11:04;;;;;;;2.30;1.00;;;16.30;39.00;;;;;;4993597;28;20186;-68
2023/06/26 07:13:31;;;;;;;4.30;1.07;;;16.20;39.30;;;;;;4990650;28;20189;-68
2023/06/26 07:15:59;;;;;;;4.93;1.10;;;16.20;39.50;;;;;;4993426;28;20178;-68
2023/06/26 07:18:26;;;;;;;2.30;1.00;;;16.10;39.50;;;;;;4991143;28;20200;-69
2023/06/26 07:20:53;;;;;;;2.90;1.10;;;16.00;39.60;;;;;;4991088;28;20685;-67
2023/06/26 07:23:20;;;;;;;1.57;0.80;;;16.00;39.20;;;;;;4990589;28;20583;-66
2023/06/26 07:25:48;;;;;;;1.83;1.00;;;16.00;39.40;;;;;;4994188;28;20227;-69
2023/06/26 07:28:15;;;;;;;3.27;0.90;;;16.00;39.30;;;;;;4975344;28;20194;-67
2023/06/26 07:30:42;;;;;;;3.53;1.10;;;15.90;39.40;;;;;;4989982;28;20186;-67
2023/06/26 07:33:10;;;;;;;4.27;1.07;;;15.80;39.70;;;;;;4993250;28;20720;-67
2023/06/26 07:35:37;;;;;;;4.87;0.93;;;15.90;39.50;;;;;;4993043;28;20210;-69
2023/06/26 07:38:04;;;;;;;3.33;1.30;;;15.90;39.20;;;;;;4992532;28;20233;-68
2023/06/26 07:40:32;;;;;;;3.10;1.20;;;15.90;39.30;;;;;;4992321;28;20226;-68
2023/06/26 07:42:59;;;;;;;3.53;1.20;;;15.80;39.30;;;;;;4983956;28;20646;-66
2023/06/26 07:45:26;;;;;;;4.97;1.00;;;15.80;39.20;;;;;;4982732;28;20670;-69
2023/06/26 07:47:54;;;;;;;2.90;1.30;;;15.90;39.30;;;;;;4972961;28;20208;-67
2023/06/26 07:50:22;;;;;;;1.43;1.03;;;15.80;39.60;;;;;;4961664;28;20738;-67
2023/06/26 07:52:51;;;;;;;2.20;1.27;;;15.80;39.60;;;;;;4982989;28;20545;-65
2023/06/26 07:55:19;;;;;;;1.13;0.93;;;15.70;40.30;;;;;;4961543;28;20186;-70
2023/06/26 07:57:47;;;;;;;1.90;1.23;;;15.80;39.80;;;;;;4974128;28;20222;-66
2023/06/26 08:00:14;;;;;;;4.33;1.40;;;15.70;40.20;;;;;;4978372;28;20223;-68
2023/06/26 08:02:42;;;;;;;4.20;1.20;;;15.70;40.20;;;;;;4973736;28;20181;-68
2023/06/26 08:05:09;;;;;;;3.10;1.37;;;15.70;40.30;;;;;;4977127;28;20276;-68
2023/06/26 08:07:36;;;;;;;5.60;1.67;;;15.70;40.40;;;;;;4973904;28;20223;-67
2023/06/26 08:10:04;;;;;;;2.20;1.23;;;15.70;40.40;;;;;;4976348;28;20295;-69
2023/06/26 08:12:31;;;;;;;2.20;1.30;;;15.50;41.00;;;;;;4981727;28;20187;-68
2023/06/26 08:15:00;;;;;;;3.23;1.20;;;15.50;40.80;;;;;;4977956;28;20187;-67
2023/06/26 08:17:28;;;;;;;4.00;1.07;;;15.50;40.90;;;;;;4975967;28;20587;-70
2023/06/26 08:19:55;;;;;;;5.87;1.20;;;15.50;41.20;;;;;;4959918;28;20213;-69
2023/06/26 08:22:22;;;;;;;5.87;1.37;;;15.50;41.30;;;;;;4956416;28;20186;-70
2023/06/26 08:24:49;;;;;;;2.40;1.23;;;15.40;41.20;;;;;;4977708;28;20175;-69
2023/06/26 08:27:17;;;;;;;2.73;1.10;;;15.50;41.00;;;;;;4977904;28;20253;-68
2023/06/26 08:29:44;;;;;;;1.97;1.10;;;15.60;40.90;;;;;;4959039;28;20576;-68
2023/06/26 08:32:11;;;;;;;2.27;1.10;;;15.60;40.90;;;;;;4976201;28;20210;-67
2023/06/26 08:34:39;;;;;;;2.23;1.13;;;15.50;41.10;;;;;;4976045;28;20197;-69
2023/06/26 08:37:08;;;;;;;3.50;1.60;;;15.40;41.20;;;;;;4978985;28;20186;-67
2023/06/26 08:39:36;;;;;;;2.87;1.50;;;15.30;41.70;;;;;;4973044;28;20660;-67
2023/06/26 08:42:04;;;;;;;6.27;1.50;;;15.30;41.70;;;;;;4973066;28;20241;-66
2023/06/26 08:44:31;;;;;;;2.63;1.50;;;15.20;42.00;;;;;;4989303;28;20706;-70
2023/06/26 08:47:01;;;;;;;2.07;1.30;;;15.20;42.00;;;;;;4991983;28;20722;-68
2023/06/26 08:49:34;;;;;;;2.67;1.73;;;15.10;42.10;;;;;;4992406;28;20516;-66
2023/06/26 08:52:11;;;;;;;6.13;1.67;;;15.00;42.50;;;;;;4989143;28;20268;-67
2023/06/26 08:54:45;;;;;;;3.37;1.40;;;15.00;42.30;;;;;;4990378;28;20235;-66
2023/06/26 08:57:13;;;;;;;3.20;1.60;;;15.20;42.00;;;;;;4987504;28;20242;-67
2023/06/26 08:59:41;;;;;;;3.20;1.63;;;15.10;42.10;;;;;;4994201;28;20659;-67
2023/06/26 09:02:08;;;;;;;5.43;1.57;;;15.20;41.80;;;;;;4990844;28;20186;-67
2023/06/26 09:04:36;;;;;;;5.60;1.40;;;15.10;42.10;;;;;;4990729;28;20244;-67
2023/06/26 09:07:03;;;;;;;3.00;1.70;;;15.10;42.10;;;;;;4992017;28;20208;-67
2023/06/26 09:09:30;;;;;;;2.30;1.60;;;15.10;42.00;;;;;;4990101;28;20229;-66
2023/06/26 09:11:58;;;;;;;5.30;1.53;;;15.10;42.10;;;;;;4988185;28;20190;-67
2023/06/26 09:14:26;;;;;;;2.03;1.20;;;15.00;42.40;;;;;;4991228;28;20227;-67
2023/06/26 09:16:53;;;;;;;3.87;1.50;;;15.00;42.40;;;;;;4988008;28;20185;-68
2023/06/26 09:19:20;;;;;;;3.37;1.50;;;14.90;42.60;;;;;;4973191;28;20190;-66
2023/06/26 09:21:53;;;;;;;4.17;1.50;;;14.80;42.60;;;;;;4970571;28;20663;-67
2023/06/26 09:24:21;;;;;;;4.63;1.40;;;14.80;42.70;;;;;;4990689;28;20213;-67
2023/06/26 09:26:50;;;;;;;2.87;1.40;;;14.80;42.80;;;;;;4988024;28;20198;-69
2023/06/26 09:29:19;;;;;;;2.67;1.20;;;14.80;42.70;;;;;;4990390;28;20193;-68
2023/06/26 09:31:47;;;;;;;2.57;1.40;;;14.80;42.70;;;;;;4985197;28;20767;-67
2023/06/26 09:34:14;;;;;;;2.60;1.33;;;14.80;42.90;;;;;;4991673;28;20268;-68
2023/06/26 09:36:46;;;;;;;2.80;1.40;;;14.80;43.10;;;;;;4988175;28;20523;-67
2023/06/26 09:39:14;;;;;;;5.93;1.50;;;14.80;43.30;;;;;;4991275;28;20208;-66
2023/06/26 09:41:42;;;;;;;4.40;1.50;;;14.70;43.50;;;;;;4989891;28;20182;-67
2023/06/26 09:44:15;;;;;;;3.43;1.53;;;14.70;43.60;;;;;;4987696;28;20241;-68
2023/06/26 09:46:46;;;;;;;3.40;1.60;;;14.80;43.70;;;;;;4991079;28;20197;-69
2023/06/26 09:49:13;;;;;;;2.83;1.60;;;14.70;43.90;;;;;;4990906;28;20200;-67
2023/06/26 09:51:42;;;;;;;3.53;1.30;;;14.70;44.40;;;;;;4987572;28;20526;-67
2023/06/26 09:54:10;;;;;;;2.40;1.27;;;14.70;44.50;;;;;;4992788;28;20193;-67
2023/06/26 09:56:37;;;;;;;2.53;1.30;;;14.70;44.70;;;;;;4986079;28;20186;-67
2023/06/26 09:59:06;;;;;;;2.23;1.30;;;14.70;45.00;;;;;;4989163;28;20174;-67
2023/06/26 10:01:37;;;;;;;4.83;1.47;;;14.80;45.20;;;;;;4986802;28;20648;-67
2023/06/26 10:04:04;;;;;;;5.20;1.37;;;14.80;45.20;;;;;;4990845;28;20182;-68
2023/06/26 10:06:39;;;;;;;6.90;1.83;;;14.70;45.60;;;;;;4987606;28;20236;-68
2023/06/26 10:09:07;;;;;;;4.77;1.80;;;14.60;45.90;;;;;;4987708;28;20527;-69
2023/06/26 10:11:59;;;;;;;4.30;1.30;;;14.70;45.90;;;;;;4988548;28;20186;-69
2023/06/26 10:14:38;;;;;;;4.07;1.47;;;14.60;46.30;;;;;;4985880;28;20244;-71
2023/06/26 10:17:10;;;;;;;2.83;1.57;;;14.60;46.50;;;;;;4986078;28;20171;-68
2023/06/26 10:19:40;;;;;;;5.23;1.50;;;14.60;46.70;;;;;;4988689;28;20675;-72
2023/06/26 10:22:09;;;;;;;2.07;1.70;;;14.60;46.90;;;;;;4988929;28;20186;-69
2023/06/26 10:24:37;;;;;;;3.27;1.40;;;14.60;47.10;;;;;;4989817;28;20660;-67
2023/06/26 10:27:20;;;;;;;4.20;1.30;;;14.60;47.00;;;;;;4987272;28;20268;-68
2023/06/26 10:29:56;;;;;;;3.37;1.53;;;14.60;47.10;;;;;;4988607;28;20573;-70
2023/06/26 10:32:27;;;;;;;4.07;1.40;;;14.50;47.50;;;;;;4985236;28;20587;-71
2023/06/26 10:34:55;;;;;;;3.90;1.60;;;14.50;47.80;;;;;;4987616;28;20524;-67
2023/06/26 10:37:57;;;;;;;2.30;1.50;;;14.30;48.20;;;;;;4990754;28;20667;-70
2023/06/26 10:40:29;;;;;;;5.97;1.43;;;14.20;49.00;;;;;;4989445;28;20237;-69
2023/06/26 10:43:11;;;;;;;3.03;1.30;;;14.10;49.30;;;;;;4986963;28;20707;-66
2023/06/26 10:45:53;;;;;;;3.37;1.37;;;14.00;49.70;;;;;;4993945;28;20726;-70
2023/06/26 10:48:22;;;;;;;2.83;1.20;;;13.90;49.80;;;;;;4989969;28;20447;-66
2023/06/26 10:50:50;;;;;;;2.47;1.17;;;13.80;49.90;;;;;;4991646;28;20178;-69
2023/06/26 10:53:33;;;;;;;4.77;1.47;;;13.80;50.20;;;;;;4974829;28;20194;-66
2023/06/26 10:56:03;;;;;;;3.03;1.57;;;13.80;50.60;;;;;;4989049;28;20201;-66
2023/06/26 10:58:32;;;;;;;3.80;1.43;;;13.70;50.70;;;;;;4971712;28;20178;-66
2023/06/26 11:01:20;;;;;;;3.53;1.53;;;13.70;51.00;;;;;;4992409;28;20230;-67
2023/06/26 11:04:04;;;;;;;5.57;1.70;;;13.70;50.60;;;;;;4993134;28;20197;-70
2023/06/26 11:06:41;;;;;;;2.60;1.50;;;13.70;51.00;;;;;;4989918;28;20186;-67
2023/06/26 11:09:15;;;;;;;2.00;1.50;;;13.60;51.40;;;;;;4975703;28;20664;-68
2023/06/26 11:11:57;;;;;;;2.53;1.30;;;13.50;52.00;;;;;;4992292;28;20269;-74
2023/06/26 11:14:27;;;;;;;2.47;1.50;;;13.40;52.50;;;;;;4989491;28;20640;-66
2023/06/26 11:17:00;;;;;;;4.87;1.60;;;13.30;52.10;;;;;;4989891;28;20278;-66
2023/06/26 11:19:29;;;;;;;4.60;1.53;;;13.30;52.40;;;;;;4987743;28;20182;-68
2023/06/26 11:22:02;;;;;;;3.77;1.40;;;13.30;52.90;;;;;;4973101;28;20189;-67
2023/06/26 11:24:31;;;;;;;3.70;1.70;;;13.20;53.40;;;;;;4993876;28;20260;-67
2023/06/26 11:27:02;;;;;;;3.90;1.67;;;13.20;53.20;;;;;;4991635;28;20190;-67
2023/06/26 11:29:30;;;;;;;4.67;1.77;;;13.20;53.70;;;;;;4994437;28;20193;-66
2023/06/26 11:32:05;;;;;;;3.80;1.50;;;13.20;53.50;;;;;;4989966;28;20293;-69
2023/06/26 11:34:33;;;;;;;5.23;1.60;;;13.20;53.30;;;;;;4993591;28;20248;-68
2023/06/26 11:37:01;;;;;;;1.97;1.50;;;13.30;53.30;;;;;;4989621;28;20683;-66
2023/06/26 11:39:28;;;;;;;3.83;1.23;;;13.30;53.00;;;;;;4991845;28;20189;-66
2023/06/26 11:41:56;;;;;;;6.73;1.83;;;13.30;53.40;;;;;;4991516;28;20190;-67
2023/06/26 11:44:24;;;;;;;2.80;1.63;;;13.30;53.80;;;;;;4992611;28;20226;-66
2023/06/26 11:46:55;;;;;;;6.17;1.90;;;13.30;54.00;;;;;;4990371;28;20495;-66
2023/06/26 11:49:23;;;;;;;4.27;1.77;;;13.20;54.30;;;;;;4993136;28;20592;-69
2023/06/26 11:51:50;;;;;;;7.27;2.00;;;13.10;54.30;;;;;;4994425;28;20197;-66
2023/06/26 11:54:25;;;;;;;3.23;1.87;;;13.00;55.10;;;;;;4991216;28;20640;-66
2023/06/26 11:56:56;;;;;;;3.87;1.80;;;12.90;55.80;;;;;;4990437;28;20189;-67
2023/06/26 11:59:25;;;;;;;4.87;1.80;;;12.90;56.30;;;;;;4986174;28;20224;-66
2023/06/26 12:01:52;;;;;;;5.53;1.80;;;12.80;56.50;;;;;;4988348;28;20193;-66
2023/06/26 12:04:21;;;;;;;4.87;1.70;;;12.70;56.80;;;;;;4989220;28;20546;-68
2023/06/26 12:06:51;;;;;;;6.03;2.00;;;12.60;56.80;;;;;;4992072;28;20267;-67
2023/06/26 12:09:20;;;;;;;4.50;1.70;;;12.50;57.30;;;;;;4991171;28;20648;-66
2023/06/26 12:11:51;;;;;;;3.20;1.27;;;12.50;56.70;;;;;;4988727;28;20193;-70
2023/06/26 12:14:22;;;;;;;4.70;1.60;;;12.50;57.10;;;;;;4989746;28;20187;-67
2023/06/26 12:16:49;;;;;;;4.27;1.90;;;12.40;57.80;;;;;;4993202;28;20726;-68
2023/06/26 12:19:17;;;;;;;5.43;1.40;;;12.30;58.20;;;;;;4989758;28;20186;-67
2023/06/26 12:21:51;;;;;;;3.23;1.50;;;12.40;57.70;;;;;;4984476;28;20644;-70
2023/06/26 12:24:22;;;;;;;4.00;2.00;;;12.40;58.20;;;;;;4991248;28;20635;-66
2023/06/26 12:26:56;;;;;;;3.47;1.70;;;12.30;57.30;;;;;;4990210;28;20213;-66
2023/06/26 12:29:34;;;;;;;3.87;1.93;;;12.30;57.60;;;;;;4992207;28;20182;-67
2023/06/26 12:32:02;;;;;;;5.20;2.07;;;12.20;58.30;;;;;;4991089;28;20192;-69
2023/06/26 12:34:40;;;;;;;7.47;1.83;;;12.30;58.30;;;;;;4973439;28;20181;-68
2023/06/26 12:37:10;;;;;;;4.37;2.33;;;12.30;58.00;;;;;;4991266;28;20655;-67
2023/06/26 12:40:17;;;;;;;6.07;1.80;;;12.30;58.00;;;;;;4983950;28;20218;-68
2023/06/26 12:42:45;;;;;;;5.97;2.00;;;12.30;58.30;;;;;;4977414;28;20377;-69
2023/06/26 12:45:15;;;;;;;5.73;2.13;;;12.50;57.40;;;;;;4987206;28;20190;-66
2023/06/26 12:47:42;;;;;;;4.80;1.80;;;12.50;57.70;;;;;;4992315;28;20548;-66
2023/06/26 12:50:10;;;;;;;5.27;2.13;;;12.40;58.80;;;;;;4990140;28;20317;-65
2023/06/26 12:52:37;;;;;;;7.70;2.53;;;12.30;59.50;;;;;;4991391;28;20678;-66
2023/06/26 12:55:06;;;;;;;5.03;2.30;;;12.20;59.70;;;;;;4985678;28;20222;-65
2023/06/26 12:57:34;;;;;;;7.40;2.30;;;12.20;60.20;;;;;;4989852;28;20290;-66
2023/06/26 13:00:03;;;;;;;4.17;1.93;;;12.20;60.40;;;;;;4987737;28;20696;-65
2023/06/26 13:02:30;;;;;;;4.93;1.80;;;12.20;61.00;;;;;;4989955;28;20189;-68
2023/06/26 13:04:57;;;;;;;6.67;2.07;;;12.20;61.40;;;;;;4988063;28;20193;-65
2023/06/26 13:07:25;;;;;;;7.53;2.00;;;12.20;61.50;;;;;;4991559;28;20645;-71
2023/06/26 13:09:52;;;;;;;5.57;1.73;;;12.20;61.80;;;;;;4988337;28;20181;-65
2023/06/26 13:12:20;;;;;;;7.27;2.33;;;12.20;61.40;;;;;;4989285;28;20192;-65
2023/06/26 13:14:48;;;;;;;8.40;1.80;;;12.20;61.30;;;;;;4989252;28;20269;-70
2023/06/26 13:17:15;;;;;;;8.40;2.10;;;12.30;60.20;;;;;;4991125;28;20186;-66
2023/06/26 13:19:43;;;;;;;7.57;2.00;;;12.30;59.90;;;;;;4987056;28;20260;-71
2023/06/26 13:22:10;;;;;;;9.13;1.60;;;12.30;59.20;;;;;;4989382;28;20181;-67
2023/06/26 13:24:38;;;;;;;3.00;1.50;;;12.30;59.00;;;;;;4990924;28;20656;-72
2023/06/26 13:27:05;;;;;;;5.47;1.73;;;12.40;57.60;;;;;;4989748;28;20197;-66
2023/06/26 13:29:32;;;;;;;5.07;1.27;;;12.80;55.70;;;;;;4991625;28;20189;-67
2023/06/26 13:32:00;;;;;;;2.97;1.40;;;13.10;54.50;;;;;;4991323;28;20189;-67
2023/06/26 13:34:29;;;;;;;4.60;1.40;;;13.10;54.70;;;;;;4969946;28;20205;-66
2023/06/26 13:36:56;;;;;;;5.63;1.97;;;13.30;53.80;;;;;;4990119;28;20198;-65
2023/06/26 13:39:24;;;;;;;3.70;1.40;;;13.30;53.50;;;;;;4988193;28;20169;-67
2023/06/26 13:41:51;;;;;;;2.80;1.30;;;13.50;53.10;;;;;;4990125;28;20640;-66
2023/06/26 13:44:18;;;;;;;3.63;1.30;;;13.50;53.10;;;;;;4992246;28;20249;-66
2023/06/26 13:46:45;;;;;;;3.20;1.33;;;13.50;53.10;;;;;;4986242;28;20192;-67
2023/06/26 13:49:13;;;;;;;3.43;1.50;;;13.50;53.20;;;;;;4991161;28;20622;-67
2023/06/26 13:51:45;;;;;;;2.97;1.40;;;13.30;53.70;;;;;;4990833;28;20185;-66
2023/06/26 13:54:12;;;;;;;5.47;1.33;;;13.30;54.40;;;;;;4987665;28;20817;-66
2023/06/26 13:56:40;;;;;;;4.50;1.20;;;13.20;54.70;;;;;;4984069;28;20280;-66
2023/06/26 13:59:07;;;;;;;2.77;1.30;;;13.10;55.00;;;;;;4989652;28;20178;-67
2023/06/26 14:01:34;;;;;;;3.00;1.37;;;12.90;55.40;;;;;;4991290;28;20304;-66
2023/06/26 14:04:02;;;;;;;3.07;1.30;;;13.00;54.90;;;;;;4986182;28;20186;-67
2023/06/26 14:06:30;;;;;;;3.90;1.40;;;13.10;54.80;;;;;;4991642;28;20197;-66
2023/06/26 14:08:57;;;;;;;3.37;1.20;;;13.10;55.40;;;;;;4989257;28;20190;-66
2023/06/26 14:11:25;;;;;;;3.60;1.70;;;12.90;55.60;;;;;;4995668;28;20189;-66
2023/06/26 14:13:52;;;;;;;4.60;1.50;;;12.80;56.20;;;;;;4995060;28;20279;-66
2023/06/26 14:16:20;;;;;;;4.27;1.63;;;12.70;56.60;;;;;;4998542;28;20205;-67
2023/06/26 14:18:48;;;;;;;3.23;1.30;;;12.80;56.00;;;;;;4989451;28;20205;-67
2023/06/26 14:21:15;;;;;;;8.53;1.57;;;12.80;56.20;;;;;;4996023;28;20560;-68
2023/06/26 14:23:42;;;;;;;2.70;1.43;;;12.90;56.00;;;;;;4991108;28;20197;-67
2023/06/26 14:26:10;;;;;;;2.23;1.30;;;12.90;55.70;;;;;;4992014;28;20261;-68
2023/06/26 14:28:39;;;;;;;6.60;1.43;;;13.00;55.20;;;;;;4992475;28;20273;-67
2023/06/26 14:31:06;;;;;;;2.90;1.40;;;13.20;54.70;;;;;;4999024;28;20186;-67
2023/06/26 14:33:33;;;;;;;3.77;1.20;;;13.20;54.70;;;;;;4991674;28;20182;-67
2023/06/26 14:36:01;;;;;;;3.27;1.20;;;13.20;54.60;;;;;;4993654;28;20182;-65
2023/06/26 14:38:28;;;;;;;3.43;1.23;;;13.20;54.90;;;;;;4993756;28;20181;-66
2023/06/26 14:40:56;;;;;;;6.23;1.40;;;13.20;54.50;;;;;;4993119;28;20264;-66
2023/06/26 14:43:23;;;;;;;3.20;1.40;;;13.30;54.40;;;;;;4991052;28;20314;-66
2023/06/26 14:45:51;;;;;;;3.43;1.43;;;13.50;53.70;;;;;;4990543;28;20182;-69
2023/06/26 14:48:19;;;;;;;5.77;1.30;;;13.40;53.90;;;;;;4992512;28;20229;-65
2023/06/26 14:50:46;;;;;;;5.77;1.50;;;13.30;54.30;;;;;;4992945;28;20192;-67
2023/06/26 14:53:13;;;;;;;5.30;1.43;;;13.20;54.70;;;;;;4994105;28;20314;-66
2023/06/26 14:55:41;;;;;;;6.23;1.20;;;13.10;55.20;;;;;;4994707;28;20273;-66
2023/06/26 14:58:08;;;;;;;5.37;1.33;;;13.10;55.20;;;;;;4994329;28;20186;-65
2023/06/26 15:00:35;;;;;;;6.03;1.70;;;13.00;55.50;;;;;;4994225;28;20272;-65
2023/06/26 15:03:03;;;;;;;3.90;1.37;;;13.00;55.40;;;;;;4993635;28;20193;-66
2023/06/26 15:05:30;;;;;;;4.50;1.50;;;13.00;55.50;;;;;;4993508;28;20189;-66
2023/06/26 15:07:57;;;;;;;3.87;1.47;;;13.00;55.70;;;;;;4990851;28;20193;-66
2023/06/26 15:10:25;;;;;;;3.57;1.40;;;12.90;55.70;;;;;;4990347;28;20699;-66
2023/06/26 15:12:53;;;;;;;2.50;1.17;;;12.90;55.80;;;;;;4989626;28;20186;-65
2023/06/26 15:15:22;;;;;;;3.03;1.40;;;12.90;55.60;;;;;;4990843;28;20230;-66
2023/06/26 15:17:49;;;;;;;3.47;1.50;;;13.00;55.70;;;;;;4994910;28;20252;-67
2023/06/26 15:20:17;;;;;;;3.30;1.53;;;12.90;55.80;;;;;;4986416;28;20350;-65
2023/06/26 15:22:44;;;;;;;2.77;1.33;;;12.80;56.10;;;;;;4992613;28;20194;-66
2023/06/26 15:25:11;;;;;;;2.53;1.20;;;12.80;56.00;;;;;;4991884;28;20713;-65
2023/06/26 15:27:39;;;;;;;3.27;1.20;;;12.90;55.90;;;;;;4992802;28;20190;-66
2023/06/26 15:30:07;;;;;;;4.90;1.60;;;12.80;56.50;;;;;;4992211;28;20216;-65
2023/06/26 15:32:34;;;;;;;3.17;1.30;;;12.80;56.60;;;;;;4993183;28;20218;-65
2023/06/26 15:35:01;;;;;;;4.77;1.40;;;12.70;57.10;;;;;;4993202;28;20194;-65
2023/06/26 15:37:29;;;;;;;5.17;1.37;;;12.70;57.50;;;;;;4990581;28;20186;-65
2023/06/26 15:39:56;;;;;;;4.77;1.57;;;12.60;58.50;;;;;;4990532;28;20213;-64
2023/06/26 15:42:28;;;;;;;3.23;1.40;;;12.50;58.50;;;;;;4992879;28;20528;-64
2023/06/26 15:44:56;;;;;;;3.50;1.50;;;12.40;58.60;;;;;;4992444;28;20190;-65
2023/06/26 15:47:23;;;;;;;5.27;1.73;;;12.30;59.20;;;;;;4991502;28;20540;-65
2023/06/26 15:49:50;;;;;;;5.90;1.40;;;12.20;59.10;;;;;;4992729;28;20189;-64
2023/06/26 15:52:18;;;;;;;4.90;1.20;;;12.20;58.70;;;;;;4992921;28;20197;-64
2023/06/26 15:54:45;;;;;;;2.90;1.47;;;12.20;59.00;;;;;;4992633;28;20229;-64
2023/06/26 15:57:12;;;;;;;3.37;1.30;;;12.00;59.20;;;;;;4988766;28;20201;-64
2023/06/26 15:59:40;;;;;;;3.43;1.60;;;12.00;60.20;;;;;;4992001;28;20221;-64
2023/06/26 16:02:07;;;;;;;5.33;1.40;;;11.80;60.40;;;;;;4989559;28;20178;-65
2023/06/26 16:04:35;;;;;;;7.37;1.67;;;11.70;61.10;;;;;;4993074;28;20547;-64
2023/06/26 16:07:02;;;;;;;2.43;1.27;;;11.70;61.80;;;;;;4992718;28;20680;-67
2023/06/26 16:09:29;;;;;;;3.83;1.27;;;11.50;62.30;;;;;;4990773;28;20201;-65
2023/06/26 16:11:57;;;;;;;3.03;1.10;;;11.50;62.60;;;;;;4988395;28;20559;-65
2023/06/26 16:14:24;;;;;;;6.07;1.43;;;11.40;63.20;;;;;;4992996;28;20186;-65
2023/06/26 16:16:52;;;;;;;4.20;1.30;;;11.30;63.20;;;;;;4989406;28;20663;-65
2023/06/26 16:19:19;;;;;;;3.00;1.17;;;11.30;63.70;;;;;;4990599;28;20276;-64
2023/06/26 16:21:47;;;;;;;4.17;1.33;;;11.30;64.00;;;;;;4988887;28;20576;-65
2023/06/26 16:24:14;;;;;;;3.47;1.27;;;11.20;64.40;;;;;;4991583;28;20205;-64
2023/06/26 16:26:41;;;;;;;4.33;1.20;;;11.20;64.20;;;;;;4989737;28;20546;-65
2023/06/26 16:29:08;;;;;;;2.70;1.30;;;11.20;64.70;;;;;;4991462;28;20178;-67
2023/06/26 16:31:36;;;;;;;5.43;1.77;;;11.30;62.70;;;;;;4989798;28;20177;-66
2023/06/26 16:34:03;;;;;;;2.27;1.30;;;11.30;62.80;;;;;;4989566;28;20225;-66
2023/06/26 16:36:31;;;;;;;3.83;1.43;;;11.40;62.30;;;;;;4992410;28;20186;-65
2023/06/26 16:38:58;;;;;;;5.73;1.37;;;11.50;62.30;;;;;;4986938;28;20214;-65
2023/06/26 16:41:25;;;;;;;3.07;1.30;;;11.50;61.90;;;;;;4985269;28;20213;-65
2023/06/26 16:43:52;;;;;;;4.37;1.40;;;11.60;61.50;;;;;;4990197;28;20389;-65
2023/06/26 16:46:20;;;;;;;5.73;1.80;;;11.70;61.40;;;;;;4989013;28;20723;-65
2023/06/26 16:48:47;;;;;;;3.77;1.50;;;11.70;61.40;;;;;;4993165;28;20301;-65
2023/06/26 16:51:15;;;;;;;4.60;1.70;;;11.70;61.10;;;;;;4989230;28;20213;-65
2023/06/26 16:53:42;;;;;;;8.00;1.43;;;11.70;61.20;;;;;;4990121;28;20188;-65
2023/06/26 16:56:09;;;;;;;3.90;1.80;;;11.70;61.40;;;;;;4991743;28;20178;-65
2023/06/26 16:58:37;;;;;;;5.60;1.30;;;11.80;61.20;;;;;;4991131;28;20189;-65
2023/06/26 17:01:04;;;;;;;2.57;1.20;;;11.80;61.30;;;;;;4989390;28;20243;-65
2023/06/26 17:03:31;;;;;;;9.67;1.90;;;11.80;61.30;;;;;;4991816;28;20598;-65
2023/06/26 17:05:59;;;;;;;7.77;1.60;;;11.80;61.50;;;;;;4987127;28;20193;-65
2023/06/26 17:08:26;;;;;;;4.57;1.70;;;11.70;61.50;;;;;;4986090;28;20395;-69
2023/06/26 17:10:53;;;;;;;3.70;1.23;;;11.70;61.70;;;;;;4988998;28;20193;-65
2023/06/26 17:13:20;;;;;;;3.30;1.47;;;11.60;61.80;;;;;;4986063;28;20437;-65
2023/06/26 17:15:48;;;;;;;5.40;1.57;;;11.50;62.20;;;;;;4989551;28;20182;-66
2023/06/26 17:18:15;;;;;;;3.13;1.43;;;11.50;62.50;;;;;;4987684;28;20190;-68
2023/06/26 17:20:43;;;;;;;4.47;1.50;;;11.40;63.20;;;;;;4990009;28;20220;-68
2023/06/26 17:23:10;;;;;;;5.07;1.60;;;11.40;63.80;;;;;;4992583;28;20291;-67
2023/06/26 17:25:38;;;;;;;6.87;1.83;;;11.30;63.80;;;;;;4989450;28;20217;-68
2023/06/26 17:28:05;;;;;;;2.60;1.50;;;11.20;64.10;;;;;;4991675;28;20617;-68
2023/06/26 17:30:33;;;;;;;5.13;1.60;;;11.20;64.70;;;;;;4988405;28;20194;-66
2023/06/26 17:33:03;;;;;;;6.00;1.93;;;11.10;64.90;;;;;;4986513;28;20192;-66
2023/06/26 17:35:30;;;;;;;6.07;1.87;;;11.00;65.40;;;;;;4989391;28;20185;-69
2023/06/26 17:37:57;;;;;;;5.13;1.40;;;10.90;65.60;;;;;;4988353;28;20194;-69
2023/06/26 17:40:25;;;;;;;5.63;1.83;;;10.90;66.20;;;;;;4988084;28;20229;-67
2023/06/26 17:42:52;;;;;;;4.47;1.70;;;10.80;66.20;;;;;;4990464;28;20244;-67
2023/06/26 17:45:19;;;;;;;5.80;1.80;;;10.90;66.10;;;;;;4987909;28;20202;-66
2023/06/26 17:47:47;;;;;;;4.30;1.47;;;10.90;65.80;;;;;;4991645;28;20188;-67
2023/06/26 17:50:14;;;;;;;2.83;1.57;;;10.90;66.30;;;;;;4989650;28;20240;-65
2023/06/26 17:52:42;;;;;;;5.17;1.70;;;10.90;65.50;;;;;;4990768;28;20190;-71
2023/06/26 17:55:10;;;;;;;8.97;2.53;;;10.80;65.80;;;;;;4990174;28;20186;-67
2023/06/26 17:57:40;;;;;;;5.13;1.40;;;10.80;66.00;;;;;;4989454;28;20236;-68
2023/06/26 18:00:11;;;;;;;5.27;2.33;;;10.70;66.20;;;;;;4989831;28;20213;-67
2023/06/26 18:02:40;;;;;;;4.60;1.50;;;10.70;66.70;;;;;;4991782;28;20189;-68
2023/06/26 18:05:07;;;;;;;6.40;1.60;;;10.80;66.50;;;;;;4989770;28;20193;-66
2023/06/26 18:07:35;;;;;;;7.70;1.97;;;10.80;66.20;;;;;;4988562;28;20198;-69
2023/06/26 18:10:03;;;;;;;5.10;1.80;;;10.90;66.00;;;;;;4990054;28;20175;-67
2023/06/26 18:12:30;;;;;;;5.17;1.90;;;10.80;66.20;;;;;;4986222;28;20546;-67
2023/06/26 18:15:01;;;;;;;4.63;1.40;;;10.80;66.80;;;;;;4989254;28;20178;-68
2023/06/26 18:17:29;;;;;;;6.23;1.40;;;10.70;66.90;;;;;;4989917;28;20678;-67
2023/06/26 18:19:57;;;;;;;5.60;1.63;;;10.60;67.10;;;;;;4990322;28;20213;-66
2023/06/26 18:22:24;;;;;;;5.33;2.00;;;10.50;67.80;;;;;;4989001;28;20185;-67
2023/06/26 18:24:51;;;;;;;4.53;1.53;;;10.50;68.00;;;;;;4990215;28;20288;-67
2023/06/26 18:27:19;;;;;;;5.60;1.87;;;10.40;68.10;;;;;;4985758;28;20193;-72
2023/06/26 18:29:46;;;;;;;4.70;1.50;;;10.30;69.10;;;;;;4991235;28;20186;-75
2023/06/26 18:32:13;;;;;;;5.20;1.70;;;10.30;69.30;;;;;;4988591;28;20197;-74
2023/06/26 18:34:41;;;;;;;4.60;1.67;;;10.20;69.20;;;;;;4989820;28;20209;-70
2023/06/26 18:37:08;;;;;;;3.40;1.40;;;10.20;69.60;;;;;;4989494;28;20648;-68
2023/06/26 18:39:37;;;;;;;3.87;1.50;;;10.20;69.90;;;;;;4990554;28;20589;-74
2023/06/26 18:42:04;;;;;;;5.83;1.60;;;10.20;70.00;;;;;;4986365;28;20190;-69
2023/06/26 18:44:32;;;;;;;2.93;1.60;;;10.10;70.10;;;;;;4988187;28;20240;-73
2023/06/26 18:46:59;;;;;;;3.93;1.50;;;10.10;70.00;;;;;;4988585;28;20260;-66
2023/06/26 18:49:30;;;;;;;9.13;1.87;;;10.10;70.20;;;;;;4989659;28;20244;-68
2023/06/26 18:51:57;;;;;;;5.07;1.53;;;10.20;70.30;;;;;;4990369;28;20239;-67
2023/06/26 18:54:24;;;;;;;3.33;1.53;;;10.20;70.70;;;;;;4986520;28;20220;-74
2023/06/26 18:56:54;;;;;;;3.73;1.50;;;10.20;70.20;;;;;;4990546;28;20190;-66
2023/06/26 18:59:23;;;;;;;3.93;1.60;;;10.20;70.30;;;;;;4993114;28;20538;-69
2023/06/26 19:01:51;;;;;;;3.27;1.70;;;10.10;70.30;;;;;;4993168;28;20218;-66
2023/06/26 19:04:18;;;;;;;5.80;1.70;;;10.10;70.60;;;;;;4992794;28;20185;-65
2023/06/26 19:06:45;;;;;;;6.10;2.00;;;10.00;70.90;;;;;;4993571;28;20189;-66
2023/06/26 19:09:13;;;;;;;4.63;1.60;;;10.00;70.70;;;;;;4990578;28;20171;-66
2023/06/26 19:11:40;;;;;;;7.90;1.77;;;10.00;71.30;;;;;;4992571;28;20189;-66
2023/06/26 19:14:07;;;;;;;6.70;1.93;;;10.00;70.80;;;;;;4990649;28;20285;-66
2023/06/26 19:16:35;;;;;;;6.90;1.93;;;9.90;71.60;;;;;;4991762;28;20538;-66
2023/06/26 19:19:02;;;;;;;4.53;1.77;;;9.80;71.80;;;;;;4991257;28;20207;-67
2023/06/26 19:24:51;;;;;;;4.83;1.80;;;9.70;72.10;;;;;;4992428;28;20209;-66
2023/06/26 19:27:19;;;;;;;7.53;1.87;;;9.70;72.10;;;;;;4992835;28;20680;-66
2023/06/26 19:29:46;;;;;;;9.07;1.90;;;9.80;72.60;;;;;;4993547;28;20205;-66
2023/06/26 19:32:13;;;;;;;2.83;1.80;;;9.80;72.40;;;;;;4991239;28;20321;-66
2023/06/26 19:34:41;;;;;;;10.23;1.70;;;9.90;72.30;;;;;;4992327;28;20610;-66
2023/06/26 19:37:08;;;;;;;6.77;1.93;;;9.90;72.10;;;;;;4989297;28;20248;-65
2023/06/26 19:39:35;;;;;;;6.77;1.87;;;10.00;72.20;;;;;;4988173;28;20681;-66
2023/06/26 19:42:03;;;;;;;5.47;1.60;;;10.10;71.90;;;;;;4991996;28;20222;-66